createdAt,value
2019-05-07T00:03:32.811Z,101484.17
2019-05-07T00:08:38.357Z,101486.70
2019-05-07T00:13:44.437Z,101479.65
2019-05-07T00:18:52.409Z,101475.82
2019-05-07T00:23:57.203Z,101473.31
2019-05-07T00:29:02.617Z,101476.24
2019-05-07T00:34:08.126Z,101469.38
2019-05-07T00:39:35.529Z,101470.27
2019-05-07T00:44:57.358Z,101464.35
2019-05-07T00:50:07.313Z,101469.34
2019-05-07T00:55:12.727Z,101463.14
2019-05-07T01:00:18.152Z,101455.58
2019-05-07T01:05:23.583Z,101462.53
2019-05-07T01:10:28.984Z,101457.37
2019-05-07T01:15:34.881Z,101453.13
2019-05-07T01:20:42.267Z,101451.13
2019-05-07T01:25:47.489Z,101447.13
2019-05-07T01:30:53.070Z,101445.85
2019-05-07T01:36:22.361Z,101444.30
2019-05-07T01:41:27.137Z,101450.73
2019-05-07T01:46:32.585Z,101451.59
2019-05-07T01:51:37.979Z,101454.48
2019-05-07T01:56:43.391Z,101451.70
2019-05-07T02:01:52.294Z,101454.09
2019-05-07T02:07:15.319Z,101457.34
2019-05-07T02:12:25.116Z,101455.13
2019-05-07T02:17:32.237Z,101451.38
2019-05-07T02:22:37.751Z,101449.84
2019-05-07T02:27:43.153Z,101446.76
2019-05-07T02:32:48.579Z,101447.92
2019-05-07T02:38:03.113Z,101446.64
2019-05-07T02:43:08.201Z,101438.88
2019-05-07T02:48:15.439Z,101439.25
2019-05-07T02:53:48.766Z,101435.88
2019-05-07T02:58:54.159Z,101441.52
2019-05-07T03:03:59.589Z,101443.39
2019-05-07T03:09:06.387Z,101443.06
2019-05-07T03:14:14.105Z,101442.74
2019-05-07T03:19:19.057Z,101434.59
2019-05-07T03:24:39.357Z,101433.52
2019-05-07T03:29:53.499Z,101436.55
2019-05-07T03:35:15.676Z,101441.98
2019-05-07T03:40:17.592Z,101437.67
2019-05-07T03:45:43.235Z,101433.89
2019-05-07T03:50:49.059Z,101440.65
2019-05-07T03:55:54.473Z,101432.97
2019-05-07T04:00:59.871Z,101433.09
2019-05-07T04:06:05.532Z,101431.95
2019-05-07T04:11:13.407Z,101434.45
2019-05-07T04:16:18.089Z,101435.08
2019-05-07T04:21:23.563Z,101430.23
2019-05-07T04:26:38.444Z,101440.27
2019-05-07T04:31:44.051Z,101435.28
2019-05-07T04:36:53.158Z,101430.09
2019-05-07T04:41:57.584Z,101429.53
2019-05-07T04:47:04.293Z,101426.26
2019-05-07T04:52:15.257Z,101420.73
2019-05-07T04:57:26.965Z,101421.91
2019-05-07T05:02:48.546Z,101425.98
2019-05-07T05:07:54.015Z,101426.17
2019-05-07T05:12:59.426Z,101424.19
2019-05-07T05:18:04.843Z,101423.04
2019-05-07T05:23:17.975Z,101425.08
2019-05-07T05:28:23.545Z,101427.33
2019-05-07T05:33:29.033Z,101420.91
2019-05-07T05:38:34.466Z,101422.21
2019-05-07T05:43:45.768Z,101424.19
2019-05-07T05:48:52.005Z,101423.74
2019-05-07T05:54:05.349Z,101413.83
2019-05-07T05:59:46.939Z,101409.73
2019-05-07T06:05:02.169Z,101410.22
2019-05-07T06:10:22.696Z,101406.13
2019-05-07T06:15:45.271Z,101396.30
2019-05-07T06:21:04.778Z,101382.14
2019-05-07T06:26:12.650Z,101380.30
2019-05-07T06:31:17.560Z,101369.36
2019-05-07T06:36:23.013Z,101371.17
2019-05-07T06:41:45.636Z,101367.91
2019-05-07T06:46:52.640Z,101371.94
2019-05-07T06:51:58.416Z,101366.08
2019-05-07T06:57:03.828Z,101362.81
2019-05-07T07:02:26.743Z,101358.53
2019-05-07T07:07:42.124Z,101355.80
2019-05-07T07:12:48.234Z,101345.78
2019-05-07T07:17:53.949Z,101336.78
2019-05-07T07:22:59.786Z,101341.95
2019-05-07T07:28:05.288Z,101337.06
2019-05-07T07:33:12.201Z,101340.29
2019-05-07T07:38:33.517Z,101345.22
2019-05-07T07:43:39.122Z,101339.28
2019-05-07T07:48:44.805Z,101343.86
2019-05-07T07:53:52.032Z,101342.94
2019-05-07T07:59:16.428Z,101348.31
2019-05-07T08:04:22.956Z,101350.14
2019-05-07T08:09:28.586Z,101343.62
2019-05-07T08:14:34.229Z,101340.80
2019-05-07T08:19:39.665Z,101338.31
2019-05-07T08:24:45.189Z,101329.31
2019-05-07T08:29:52.453Z,101317.09
2019-05-07T08:35:14.323Z,101316.42
2019-05-07T08:40:21.936Z,101313.09
2019-05-07T08:45:44.538Z,101309.11
2019-05-07T08:50:49.939Z,101296.27
2019-05-07T08:55:55.421Z,101296.32
2019-05-07T09:01:03.000Z,101288.03
2019-05-07T09:06:08.165Z,101274.63
2019-05-07T09:11:13.877Z,101263.91
2019-05-07T09:16:19.624Z,101257.34
2019-05-07T09:21:25.374Z,101249.29
2019-05-07T09:26:38.017Z,101243.11
2019-05-07T09:32:03.018Z,101243.26
2019-05-07T09:37:12.434Z,101253.64
2019-05-07T09:42:17.977Z,101248.60
2019-05-07T09:47:23.473Z,101255.52
2019-05-07T09:52:28.940Z,101251.92
2019-05-07T09:57:34.830Z,101257.97
2019-05-07T10:02:42.327Z,101256.42
2019-05-07T10:07:47.619Z,101257.20
2019-05-07T10:13:12.182Z,101256.92
2019-05-07T10:18:19.256Z,101247.41
2019-05-07T10:23:24.814Z,101245.75
2019-05-07T10:28:32.061Z,101247.17
2019-05-07T10:33:37.398Z,101241.48
2019-05-07T10:38:42.917Z,101240.67
2019-05-07T10:43:48.418Z,101232.64
2019-05-07T10:49:02.111Z,101231.80
2019-05-07T10:54:07.587Z,101223.66
2019-05-07T10:59:13.044Z,101213.88
2019-05-07T11:04:18.470Z,101208.78
2019-05-07T11:09:23.957Z,101203.99
2019-05-07T11:14:29.565Z,101203.73
2019-05-07T11:19:35.068Z,101203.15
2019-05-07T11:24:42.600Z,101193.08
2019-05-07T11:29:47.942Z,101187.30
2019-05-07T11:34:56.302Z,101191.14
2019-05-07T11:40:03.047Z,101188.28
2019-05-07T11:45:12.602Z,101188.57
2019-05-07T11:50:33.056Z,101185.36
2019-05-07T11:55:38.617Z,101180.52
2019-05-07T12:00:52.580Z,101180.47
2019-05-07T12:05:57.999Z,101173.73
2019-05-07T12:11:03.435Z,101167.06
2019-05-07T12:16:11.474Z,101159.02
2019-05-07T12:21:20.786Z,101154.05
2019-05-07T12:26:23.196Z,101138.90
2019-05-07T12:32:05.486Z,101140.70
2019-05-07T12:37:12.281Z,101133.15
2019-05-07T12:42:18.781Z,101131.69
2019-05-07T12:47:24.765Z,101118.95
2019-05-07T12:52:36.055Z,101113.84
2019-05-07T12:57:42.066Z,101111.13
2019-05-07T13:03:07.854Z,101104.28
2019-05-07T13:08:13.290Z,101094.77
2019-05-07T13:13:18.778Z,101098.11
2019-05-07T13:18:24.580Z,101092.55
2019-05-07T13:23:31.835Z,101087.76
2019-05-07T13:28:37.393Z,101088.25
2019-05-07T13:33:42.843Z,101075.29
2019-05-07T13:39:02.423Z,101065.00
2019-05-07T13:44:26.849Z,101061.43
2019-05-07T13:49:32.383Z,101062.22
2019-05-07T13:54:38.023Z,101051.27
2019-05-07T13:59:44.038Z,101040.02
2019-05-07T14:04:49.531Z,101034.95
2019-05-07T14:09:54.966Z,101035.04
2019-05-07T14:15:02.142Z,101034.53
2019-05-07T14:20:08.114Z,101025.98
2019-05-07T14:25:13.610Z,101024.70
2019-05-07T14:30:21.746Z,101020.88
2019-05-07T14:35:32.683Z,101012.02
2019-05-07T14:40:38.188Z,101008.72
2019-05-07T14:45:43.649Z,101006.86
2019-05-07T14:50:49.109Z,101000.78
2019-05-07T14:55:54.599Z,101002.52
2019-05-07T15:01:02.275Z,100995.88
2019-05-07T15:06:07.169Z,100989.30
2019-05-07T15:11:12.875Z,100976.04
2019-05-07T15:16:18.292Z,100972.84
2019-05-07T15:21:24.127Z,100966.02
2019-05-07T15:26:29.645Z,100970.58
2019-05-07T15:31:52.399Z,100962.33
2019-05-07T15:36:57.834Z,100960.19
2019-05-07T15:42:03.252Z,100943.70
2019-05-07T15:47:13.370Z,100934.81
2019-05-07T15:52:24.523Z,100939.72
2019-05-07T15:57:30.274Z,100931.84
2019-05-07T16:02:38.808Z,100924.14
2019-05-07T16:07:45.998Z,100921.18
2019-05-07T16:12:53.064Z,100917.05
2019-05-07T16:18:02.967Z,100913.80
2019-05-07T16:23:14.728Z,100903.31
2019-05-07T16:28:15.876Z,100907.89
2019-05-07T16:33:21.418Z,100897.92
2019-05-07T16:38:26.867Z,100904.23
2019-05-07T16:43:32.464Z,100894.30
2019-05-07T16:48:37.920Z,100890.95
2019-05-07T16:53:43.355Z,100890.84
2019-05-07T16:58:53.248Z,100882.59
2019-05-07T17:04:00.143Z,100881.09
2019-05-07T17:09:14.638Z,100882.20
2019-05-07T17:14:20.119Z,100877.15
2019-05-07T17:19:25.563Z,100873.38
2019-05-07T17:24:32.874Z,100873.38
2019-05-07T17:29:38.137Z,100871.73
2019-05-07T17:34:43.664Z,100864.19
2019-05-07T17:39:49.099Z,100863.33
2019-05-07T17:44:54.488Z,100869.11
2019-05-07T17:50:02.043Z,100868.53
2019-05-07T17:55:10.131Z,100869.48
2019-05-07T18:00:15.707Z,100864.74
2019-05-07T18:05:21.640Z,100866.20
2019-05-07T18:10:27.231Z,100861.23
2019-05-07T18:15:33.174Z,100855.70
2019-05-07T18:20:38.674Z,100851.75
2019-05-07T18:25:44.271Z,100857.88
2019-05-07T18:30:49.968Z,100854.86
2019-05-07T18:35:55.348Z,100853.27
2019-05-07T18:41:02.654Z,100845.61
2019-05-07T18:46:08.558Z,100841.31
2019-05-07T18:51:14.102Z,100840.30
2019-05-07T18:56:21.892Z,100833.97
2019-05-07T19:01:28.570Z,100829.28
2019-05-07T19:06:34.108Z,100831.60
2019-05-07T19:11:39.761Z,100835.52
2019-05-07T19:16:45.322Z,100844.66
2019-05-07T19:21:52.783Z,100840.47
2019-05-07T19:26:57.992Z,100837.41
2019-05-07T19:32:04.273Z,100839.94
2019-05-07T19:37:09.894Z,100839.73
2019-05-07T19:42:15.369Z,100837.64
2019-05-07T19:47:23.070Z,100838.11
2019-05-07T19:52:28.316Z,100832.63
2019-05-07T19:57:39.151Z,100831.36
2019-05-07T20:02:47.661Z,100832.88
2019-05-07T20:07:55.596Z,100839.09
2019-05-07T20:13:00.215Z,100828.50
2019-05-07T20:18:05.913Z,100829.36
2019-05-07T20:23:12.024Z,100819.92
2019-05-07T20:28:17.553Z,100818.18
2019-05-07T20:33:23.066Z,100797.98
2019-05-07T20:38:28.676Z,100800.70
2019-05-07T20:43:34.087Z,100792.02
2019-05-07T20:48:42.141Z,100779.56
2019-05-07T20:54:14.389Z,100778.05
2019-05-07T20:59:21.917Z,100768.97
2019-05-07T21:04:27.335Z,100755.30
2019-05-07T21:09:33.008Z,100748.36
2019-05-07T21:14:38.650Z,100749.14
2019-05-07T21:19:44.064Z,100745.97
2019-05-07T21:24:49.479Z,100746.59
2019-05-07T21:29:54.888Z,100741.55
2019-05-07T21:35:00.304Z,100732.27
2019-05-07T21:40:06.199Z,100732.22
2019-05-07T21:45:11.648Z,100727.03
2019-05-07T21:50:17.053Z,100721.16
2019-05-07T21:55:34.625Z,100720.23
2019-05-07T22:00:54.392Z,100718.37
2019-05-07T22:05:59.795Z,100710.45
2019-05-07T22:11:05.403Z,100701.59
2019-05-07T22:16:12.967Z,100695.63
2019-05-07T22:21:20.163Z,100689.77
2019-05-07T22:26:26.565Z,100689.60
2019-05-07T22:32:09.053Z,100681.84
2019-05-07T22:37:14.603Z,100669.25
2019-05-07T22:42:22.223Z,100659.62
2019-05-07T22:47:27.278Z,100653.84
2019-05-07T22:52:32.790Z,100647.81
2019-05-07T22:57:44.049Z,100645.59
2019-05-07T23:02:51.704Z,100632.28
2019-05-07T23:07:56.752Z,100623.47
2019-05-07T23:13:04.258Z,100616.08
2019-05-07T23:18:09.665Z,100601.84
2019-05-07T23:23:15.085Z,100596.74
2019-05-07T23:28:22.800Z,100587.55
2019-05-07T23:33:27.633Z,100589.09
2019-05-07T23:38:33.035Z,100584.85
2019-05-07T23:43:38.709Z,100570.06
2019-05-07T23:48:44.197Z,100563.61
2019-05-07T23:53:51.825Z,100566.75
2019-05-07T23:58:56.777Z,100558.77
